sensor_id;sensor_type;location;lat;lon;timestamp;P1;durP1;ratioP1;P2;durP2;ratioP2
51724;SDS011;37801;53.224;6.552;2023-07-30T00:00:09;14.63;;;5.32;;
51724;SDS011;37801;53.224;6.552;2023-07-30T00:02:35;13.25;;;5.78;;
51724;SDS011;37801;53.224;6.552;2023-07-30T00:05:01;12.43;;;5.45;;
51724;SDS011;37801;53.224;6.552;2023-07-30T00:07:26;15.50;;;5.35;;
51724;SDS011;37801;53.224;6.552;2023-07-30T00:09:52;16.23;;;6.07;;
51724;SDS011;37801;53.224;6.552;2023-07-30T00:12:18;19.42;;;5.90;;
51724;SDS011;37801;53.224;6.552;2023-07-30T00:14:43;14.05;;;5.40;;
51724;SDS011;37801;53.224;6.552;2023-07-30T00:17:09;11.32;;;5.32;;
51724;SDS011;37801;53.224;6.552;2023-07-30T00:19:35;14.13;;;5.50;;
51724;SDS011;37801;53.224;6.552;2023-07-30T00:22:00;13.68;;;6.10;;
51724;SDS011;37801;53.224;6.552;2023-07-30T00:24:26;13.80;;;5.30;;
51724;SDS011;37801;53.224;6.552;2023-07-30T00:27:12;13.75;;;5.82;;
51724;SDS011;37801;53.224;6.552;2023-07-30T00:29:57;15.50;;;5.07;;
51724;SDS011;37801;53.224;6.552;2023-07-30T00:32:43;10.95;;;5.10;;
51724;SDS011;37801;53.224;6.552;2023-07-30T00:35:28;12.23;;;4.88;;
51724;SDS011;37801;53.224;6.552;2023-07-30T00:38:14;17.25;;;5.00;;
51724;SDS011;37801;53.224;6.552;2023-07-30T00:40:59;14.75;;;5.00;;
51724;SDS011;37801;53.224;6.552;2023-07-30T00:43:45;16.08;;;4.85;;
51724;SDS011;37801;53.224;6.552;2023-07-30T00:46:31;13.07;;;4.60;;
51724;SDS011;37801;53.224;6.552;2023-07-30T00:49:16;13.75;;;5.38;;
51724;SDS011;37801;53.224;6.552;2023-07-30T00:52:02;12.52;;;4.70;;
51724;SDS011;37801;53.224;6.552;2023-07-30T00:54:49;16.73;;;5.32;;
51724;SDS011;37801;53.224;6.552;2023-07-30T00:57:36;14.05;;;5.28;;
51724;SDS011;37801;53.224;6.552;2023-07-30T01:00:22;15.18;;;5.00;;
51724;SDS011;37801;53.224;6.552;2023-07-30T01:02:50;15.85;;;5.20;;
51724;SDS011;37801;53.224;6.552;2023-07-30T01:05:16;14.73;;;5.32;;
51724;SDS011;37801;53.224;6.552;2023-07-30T01:07:42;10.55;;;4.72;;
51724;SDS011;37801;53.224;6.552;2023-07-30T01:10:28;14.13;;;5.13;;
51724;SDS011;37801;53.224;6.552;2023-07-30T01:13:16;13.80;;;5.35;;
51724;SDS011;37801;53.224;6.552;2023-07-30T01:16:02;14.68;;;5.45;;
51724;SDS011;37801;53.224;6.552;2023-07-30T01:18:49;14.40;;;5.35;;
51724;SDS011;37801;53.224;6.552;2023-07-30T01:21:35;13.95;;;5.20;;
51724;SDS011;37801;53.224;6.552;2023-07-30T01:24:21;16.95;;;5.10;;
51724;SDS011;37801;53.224;6.552;2023-07-30T01:27:07;14.27;;;4.75;;
51724;SDS011;37801;53.224;6.552;2023-07-30T01:32:49;11.27;;;4.25;;
51724;SDS011;37801;53.224;6.552;2023-07-30T01:35:35;13.10;;;4.80;;
51724;SDS011;37801;53.224;6.552;2023-07-30T01:38:02;14.63;;;4.40;;
51724;SDS011;37801;53.224;6.552;2023-07-30T01:40:31;18.52;;;5.35;;
51724;SDS011;37801;53.224;6.552;2023-07-30T01:42:57;11.95;;;5.00;;
51724;SDS011;37801;53.224;6.552;2023-07-30T01:45:23;14.18;;;4.88;;
51724;SDS011;37801;53.224;6.552;2023-07-30T01:47:49;14.18;;;4.90;;
51724;SDS011;37801;53.224;6.552;2023-07-30T01:50:14;11.98;;;4.63;;
51724;SDS011;37801;53.224;6.552;2023-07-30T01:52:40;12.07;;;4.50;;
51724;SDS011;37801;53.224;6.552;2023-07-30T01:55:06;13.25;;;4.40;;
51724;SDS011;37801;53.224;6.552;2023-07-30T01:57:32;12.25;;;4.57;;
51724;SDS011;37801;53.224;6.552;2023-07-30T01:59:57;16.77;;;4.50;;
51724;SDS011;37801;53.224;6.552;2023-07-30T02:02:23;15.38;;;4.90;;
51724;SDS011;37801;53.224;6.552;2023-07-30T02:04:49;16.65;;;4.45;;
51724;SDS011;37801;53.224;6.552;2023-07-30T02:07:15;11.13;;;4.50;;
51724;SDS011;37801;53.224;6.552;2023-07-30T02:09:40;13.43;;;4.60;;
51724;SDS011;37801;53.224;6.552;2023-07-30T02:12:06;14.60;;;4.55;;
51724;SDS011;37801;53.224;6.552;2023-07-30T02:14:52;10.20;;;4.45;;
51724;SDS011;37801;53.224;6.552;2023-07-30T02:17:38;15.88;;;4.78;;
51724;SDS011;37801;53.224;6.552;2023-07-30T02:20:23;12.80;;;4.75;;
51724;SDS011;37801;53.224;6.552;2023-07-30T02:23:09;16.88;;;4.70;;
51724;SDS011;37801;53.224;6.552;2023-07-30T02:25:54;18.23;;;5.15;;
51724;SDS011;37801;53.224;6.552;2023-07-30T02:28:40;15.02;;;4.80;;
51724;SDS011;37801;53.224;6.552;2023-07-30T02:31:26;10.52;;;4.32;;
51724;SDS011;37801;53.224;6.552;2023-07-30T02:34:11;13.65;;;4.90;;
51724;SDS011;37801;53.224;6.552;2023-07-30T02:36:57;15.07;;;4.60;;
51724;SDS011;37801;53.224;6.552;2023-07-30T02:39:42;15.52;;;5.13;;
51724;SDS011;37801;53.224;6.552;2023-07-30T02:42:28;14.25;;;4.68;;
51724;SDS011;37801;53.224;6.552;2023-07-30T02:45:14;19.17;;;4.80;;
51724;SDS011;37801;53.224;6.552;2023-07-30T02:47:59;12.90;;;4.53;;
51724;SDS011;37801;53.224;6.552;2023-07-30T02:50:45;15.57;;;4.20;;
51724;SDS011;37801;53.224;6.552;2023-07-30T02:53:31;15.85;;;4.63;;
51724;SDS011;37801;53.224;6.552;2023-07-30T02:56:16;15.75;;;4.68;;
51724;SDS011;37801;53.224;6.552;2023-07-30T02:59:02;10.38;;;3.92;;
51724;SDS011;37801;53.224;6.552;2023-07-30T03:01:48;15.20;;;4.78;;
51724;SDS011;37801;53.224;6.552;2023-07-30T03:04:33;15.45;;;5.45;;
51724;SDS011;37801;53.224;6.552;2023-07-30T03:07:19;16.83;;;4.28;;
51724;SDS011;37801;53.224;6.552;2023-07-30T03:10:05;17.42;;;4.38;;
51724;SDS011;37801;53.224;6.552;2023-07-30T03:12:51;17.20;;;4.32;;
51724;SDS011;37801;53.224;6.552;2023-07-30T03:15:36;14.65;;;4.18;;
51724;SDS011;37801;53.224;6.552;2023-07-30T03:18:22;14.45;;;4.63;;
51724;SDS011;37801;53.224;6.552;2023-07-30T03:21:07;13.63;;;4.18;;
51724;SDS011;37801;53.224;6.552;2023-07-30T03:23:53;18.90;;;4.32;;
51724;SDS011;37801;53.224;6.552;2023-07-30T03:26:38;12.43;;;3.95;;
51724;SDS011;37801;53.224;6.552;2023-07-30T03:29:24;12.57;;;3.90;;
51724;SDS011;37801;53.224;6.552;2023-07-30T03:32:10;12.63;;;3.97;;
51724;SDS011;37801;53.224;6.552;2023-07-30T03:34:55;14.27;;;4.18;;
51724;SDS011;37801;53.224;6.552;2023-07-30T03:37:41;15.68;;;4.20;;
51724;SDS011;37801;53.224;6.552;2023-07-30T03:40:27;13.93;;;4.07;;
51724;SDS011;37801;53.224;6.552;2023-07-30T03:43:13;12.15;;;3.80;;
51724;SDS011;37801;53.224;6.552;2023-07-30T03:45:59;15.38;;;4.25;;
51724;SDS011;37801;53.224;6.552;2023-07-30T03:48:44;12.05;;;4.38;;
51724;SDS011;37801;53.224;6.552;2023-07-30T03:51:31;15.82;;;4.13;;
51724;SDS011;37801;53.224;6.552;2023-07-30T03:54:17;14.55;;;3.42;;
51724;SDS011;37801;53.224;6.552;2023-07-30T03:57:02;14.85;;;4.30;;
51724;SDS011;37801;53.224;6.552;2023-07-30T03:59:48;12.45;;;3.90;;
51724;SDS011;37801;53.224;6.552;2023-07-30T04:02:34;17.55;;;4.25;;
51724;SDS011;37801;53.224;6.552;2023-07-30T04:05:19;15.73;;;3.72;;
51724;SDS011;37801;53.224;6.552;2023-07-30T04:08:05;13.13;;;3.90;;
51724;SDS011;37801;53.224;6.552;2023-07-30T04:10:50;10.15;;;3.40;;
51724;SDS011;37801;53.224;6.552;2023-07-30T04:13:36;13.02;;;3.47;;
51724;SDS011;37801;53.224;6.552;2023-07-30T04:16:22;14.15;;;3.53;;
51724;SDS011;37801;53.224;6.552;2023-07-30T04:19:08;13.48;;;4.13;;
51724;SDS011;37801;53.224;6.552;2023-07-30T04:21:53;11.57;;;3.65;;
51724;SDS011;37801;53.224;6.552;2023-07-30T04:24:39;13.77;;;3.35;;
51724;SDS011;37801;53.224;6.552;2023-07-30T04:27:24;16.65;;;4.40;;
51724;SDS011;37801;53.224;6.552;2023-07-30T04:30:10;16.85;;;4.13;;
51724;SDS011;37801;53.224;6.552;2023-07-30T04:32:56;13.30;;;4.28;;
51724;SDS011;37801;53.224;6.552;2023-07-30T04:35:42;13.07;;;3.50;;
51724;SDS011;37801;53.224;6.552;2023-07-30T04:38:27;13.48;;;3.50;;
51724;SDS011;37801;53.224;6.552;2023-07-30T04:41:13;13.35;;;4.03;;
51724;SDS011;37801;53.224;6.552;2023-07-30T04:43:59;13.90;;;4.00;;
51724;SDS011;37801;53.224;6.552;2023-07-30T04:46:45;21.40;;;4.32;;
51724;SDS011;37801;53.224;6.552;2023-07-30T04:49:30;12.52;;;3.40;;
51724;SDS011;37801;53.224;6.552;2023-07-30T04:52:16;15.52;;;4.05;;
51724;SDS011;37801;53.224;6.552;2023-07-30T04:55:01;12.98;;;3.38;;
51724;SDS011;37801;53.224;6.552;2023-07-30T04:57:47;15.70;;;4.07;;
51724;SDS011;37801;53.224;6.552;2023-07-30T05:00:33;13.07;;;4.00;;
51724;SDS011;37801;53.224;6.552;2023-07-30T05:03:18;13.10;;;3.55;;
51724;SDS011;37801;53.224;6.552;2023-07-30T05:06:04;11.35;;;3.67;;
51724;SDS011;37801;53.224;6.552;2023-07-30T05:08:50;14.60;;;3.75;;
51724;SDS011;37801;53.224;6.552;2023-07-30T05:11:35;14.00;;;3.28;;
51724;SDS011;37801;53.224;6.552;2023-07-30T05:14:21;13.88;;;3.72;;
51724;SDS011;37801;53.224;6.552;2023-07-30T05:17:06;10.68;;;3.63;;
51724;SDS011;37801;53.224;6.552;2023-07-30T05:19:52;11.18;;;3.13;;
51724;SDS011;37801;53.224;6.552;2023-07-30T05:22:38;13.52;;;3.15;;
51724;SDS011;37801;53.224;6.552;2023-07-30T05:25:23;9.63;;;3.00;;
51724;SDS011;37801;53.224;6.552;2023-07-30T05:28:09;11.43;;;3.22;;
51724;SDS011;37801;53.224;6.552;2023-07-30T05:30:54;8.40;;;2.67;;
51724;SDS011;37801;53.224;6.552;2023-07-30T05:33:40;13.80;;;3.28;;
51724;SDS011;37801;53.224;6.552;2023-07-30T05:36:26;12.15;;;3.08;;
51724;SDS011;37801;53.224;6.552;2023-07-30T05:39:11;9.32;;;3.17;;
51724;SDS011;37801;53.224;6.552;2023-07-30T05:41:57;10.20;;;3.17;;
51724;SDS011;37801;53.224;6.552;2023-07-30T05:44:42;9.15;;;3.15;;
51724;SDS011;37801;53.224;6.552;2023-07-30T05:47:28;7.78;;;2.47;;
51724;SDS011;37801;53.224;6.552;2023-07-30T05:50:14;11.85;;;2.85;;
51724;SDS011;37801;53.224;6.552;2023-07-30T05:52:59;6.55;;;2.08;;
51724;SDS011;37801;53.224;6.552;2023-07-30T05:55:45;12.90;;;3.03;;
51724;SDS011;37801;53.224;6.552;2023-07-30T05:58:31;10.77;;;3.25;;
51724;SDS011;37801;53.224;6.552;2023-07-30T06:01:16;9.18;;;3.25;;
51724;SDS011;37801;53.224;6.552;2023-07-30T06:04:02;8.77;;;2.58;;
51724;SDS011;37801;53.224;6.552;2023-07-30T06:06:48;11.13;;;3.00;;
51724;SDS011;37801;53.224;6.552;2023-07-30T06:09:33;14.85;;;3.50;;
51724;SDS011;37801;53.224;6.552;2023-07-30T06:12:19;11.45;;;3.17;;
51724;SDS011;37801;53.224;6.552;2023-07-30T06:15:05;8.45;;;2.70;;
51724;SDS011;37801;53.224;6.552;2023-07-30T06:17:52;10.27;;;2.63;;
51724;SDS011;37801;53.224;6.552;2023-07-30T06:20:37;11.82;;;2.88;;
51724;SDS011;37801;53.224;6.552;2023-07-30T06:23:23;11.73;;;3.15;;
51724;SDS011;37801;53.224;6.552;2023-07-30T06:26:09;10.77;;;2.90;;
51724;SDS011;37801;53.224;6.552;2023-07-30T06:28:54;8.05;;;2.72;;
51724;SDS011;37801;53.224;6.552;2023-07-30T06:31:40;9.63;;;2.67;;
51724;SDS011;37801;53.224;6.552;2023-07-30T06:34:26;10.00;;;2.70;;
51724;SDS011;37801;53.224;6.552;2023-07-30T06:37:11;14.77;;;2.90;;
51724;SDS011;37801;53.224;6.552;2023-07-30T06:39:57;9.00;;;2.45;;
51724;SDS011;37801;53.224;6.552;2023-07-30T06:42:42;11.57;;;2.50;;
51724;SDS011;37801;53.224;6.552;2023-07-30T06:45:28;7.97;;;2.10;;
51724;SDS011;37801;53.224;6.552;2023-07-30T06:48:14;13.07;;;2.60;;
51724;SDS011;37801;53.224;6.552;2023-07-30T06:50:59;7.40;;;2.53;;
51724;SDS011;37801;53.224;6.552;2023-07-30T06:53:45;9.48;;;2.83;;
51724;SDS011;37801;53.224;6.552;2023-07-30T06:56:31;15.60;;;2.80;;
51724;SDS011;37801;53.224;6.552;2023-07-30T06:59:16;12.25;;;2.92;;
51724;SDS011;37801;53.224;6.552;2023-07-30T07:02:02;10.30;;;2.95;;
51724;SDS011;37801;53.224;6.552;2023-07-30T07:04:48;8.18;;;2.92;;
51724;SDS011;37801;53.224;6.552;2023-07-30T07:07:34;10.68;;;2.83;;
51724;SDS011;37801;53.224;6.552;2023-07-30T07:10:19;10.00;;;2.90;;
51724;SDS011;37801;53.224;6.552;2023-07-30T07:13:05;10.45;;;2.67;;
51724;SDS011;37801;53.224;6.552;2023-07-30T07:15:51;9.30;;;2.75;;
51724;SDS011;37801;53.224;6.552;2023-07-30T07:18:36;15.07;;;3.50;;
51724;SDS011;37801;53.224;6.552;2023-07-30T07:21:22;9.50;;;2.75;;
51724;SDS011;37801;53.224;6.552;2023-07-30T07:24:07;8.40;;;2.88;;
51724;SDS011;37801;53.224;6.552;2023-07-30T07:26:53;13.27;;;2.78;;
51724;SDS011;37801;53.224;6.552;2023-07-30T07:29:39;9.25;;;2.85;;
51724;SDS011;37801;53.224;6.552;2023-07-30T07:32:24;6.95;;;2.17;;
51724;SDS011;37801;53.224;6.552;2023-07-30T07:35:10;9.23;;;2.60;;
51724;SDS011;37801;53.224;6.552;2023-07-30T07:37:56;7.18;;;2.20;;
51724;SDS011;37801;53.224;6.552;2023-07-30T07:40:42;9.40;;;2.42;;
51724;SDS011;37801;53.224;6.552;2023-07-30T07:43:28;9.48;;;2.40;;
51724;SDS011;37801;53.224;6.552;2023-07-30T07:46:14;10.05;;;2.20;;
51724;SDS011;37801;53.224;6.552;2023-07-30T07:49:00;8.93;;;2.30;;
51724;SDS011;37801;53.224;6.552;2023-07-30T07:51:45;6.50;;;1.75;;
51724;SDS011;37801;53.224;6.552;2023-07-30T07:54:31;7.95;;;2.08;;
51724;SDS011;37801;53.224;6.552;2023-07-30T07:57:16;9.10;;;1.90;;
51724;SDS011;37801;53.224;6.552;2023-07-30T08:00:02;10.52;;;2.13;;
51724;SDS011;37801;53.224;6.552;2023-07-30T08:02:48;6.53;;;1.67;;
51724;SDS011;37801;53.224;6.552;2023-07-30T08:05:34;8.13;;;2.03;;
51724;SDS011;37801;53.224;6.552;2023-07-30T08:08:19;8.77;;;1.85;;
51724;SDS011;37801;53.224;6.552;2023-07-30T08:11:05;9.80;;;1.80;;
51724;SDS011;37801;53.224;6.552;2023-07-30T08:13:52;8.30;;;2.13;;
51724;SDS011;37801;53.224;6.552;2023-07-30T08:16:37;12.20;;;2.00;;
51724;SDS011;37801;53.224;6.552;2023-07-30T08:19:23;11.13;;;2.38;;
51724;SDS011;37801;53.224;6.552;2023-07-30T08:22:09;6.97;;;2.10;;
51724;SDS011;37801;53.224;6.552;2023-07-30T08:24:54;6.18;;;1.90;;
51724;SDS011;37801;53.224;6.552;2023-07-30T08:27:40;7.20;;;1.90;;
51724;SDS011;37801;53.224;6.552;2023-07-30T08:30:26;7.80;;;1.80;;
51724;SDS011;37801;53.224;6.552;2023-07-30T08:33:12;8.57;;;1.98;;
51724;SDS011;37801;53.224;6.552;2023-07-30T08:35:58;7.68;;;1.85;;
51724;SDS011;37801;53.224;6.552;2023-07-30T08:38:44;10.95;;;2.00;;
51724;SDS011;37801;53.224;6.552;2023-07-30T08:41:30;9.27;;;2.15;;
51724;SDS011;37801;53.224;6.552;2023-07-30T08:44:16;7.70;;;1.73;;
51724;SDS011;37801;53.224;6.552;2023-07-30T08:47:01;9.02;;;2.15;;
51724;SDS011;37801;53.224;6.552;2023-07-30T08:49:47;8.52;;;2.22;;
51724;SDS011;37801;53.224;6.552;2023-07-30T08:52:33;9.98;;;1.92;;
51724;SDS011;37801;53.224;6.552;2023-07-30T08:55:21;9.15;;;1.83;;
51724;SDS011;37801;53.224;6.552;2023-07-30T08:58:07;6.38;;;2.22;;
51724;SDS011;37801;53.224;6.552;2023-07-30T09:00:57;6.57;;;1.90;;
51724;SDS011;37801;53.224;6.552;2023-07-30T09:03:44;6.82;;;1.65;;
51724;SDS011;37801;53.224;6.552;2023-07-30T09:06:30;9.98;;;1.83;;
51724;SDS011;37801;53.224;6.552;2023-07-30T09:09:17;5.40;;;1.83;;
51724;SDS011;37801;53.224;6.552;2023-07-30T09:12:03;8.02;;;1.88;;
51724;SDS011;37801;53.224;6.552;2023-07-30T09:14:50;8.98;;;1.80;;
51724;SDS011;37801;53.224;6.552;2023-07-30T09:17:36;7.90;;;1.98;;
51724;SDS011;37801;53.224;6.552;2023-07-30T09:20:22;6.30;;;1.77;;
51724;SDS011;37801;53.224;6.552;2023-07-30T09:23:08;5.50;;;1.67;;
51724;SDS011;37801;53.224;6.552;2023-07-30T09:25:57;10.15;;;1.83;;
51724;SDS011;37801;53.224;6.552;2023-07-30T09:28:43;5.97;;;1.90;;
51724;SDS011;37801;53.224;6.552;2023-07-30T09:31:29;8.73;;;1.70;;
51724;SDS011;37801;53.224;6.552;2023-07-30T09:33:58;8.30;;;1.90;;
51724;SDS011;37801;53.224;6.552;2023-07-30T09:36:44;9.80;;;2.10;;
51724;SDS011;37801;53.224;6.552;2023-07-30T09:39:30;8.95;;;1.90;;
51724;SDS011;37801;53.224;6.552;2023-07-30T09:42:16;7.00;;;1.55;;
51724;SDS011;37801;53.224;6.552;2023-07-30T09:45:21;4.80;;;1.45;;
51724;SDS011;37801;53.224;6.552;2023-07-30T09:48:08;4.15;;;1.27;;
51724;SDS011;37801;53.224;6.552;2023-07-30T09:50:53;4.43;;;0.95;;
51724;SDS011;37801;53.224;6.552;2023-07-30T09:53:39;4.47;;;1.30;;
51724;SDS011;37801;53.224;6.552;2023-07-30T09:56:26;7.55;;;1.38;;
51724;SDS011;37801;53.224;6.552;2023-07-30T09:59:11;4.72;;;1.38;;
51724;SDS011;37801;53.224;6.552;2023-07-30T10:01:57;6.55;;;1.60;;
51724;SDS011;37801;53.224;6.552;2023-07-30T10:04:43;7.07;;;1.42;;
51724;SDS011;37801;53.224;6.552;2023-07-30T10:07:34;3.65;;;1.10;;
51724;SDS011;37801;53.224;6.552;2023-07-30T10:10:20;6.68;;;1.38;;
51724;SDS011;37801;53.224;6.552;2023-07-30T10:13:09;4.63;;;1.08;;
51724;SDS011;37801;53.224;6.552;2023-07-30T10:15:57;7.78;;;1.40;;
51724;SDS011;37801;53.224;6.552;2023-07-30T10:18:43;4.97;;;1.52;;
51724;SDS011;37801;53.224;6.552;2023-07-30T10:21:31;7.05;;;1.83;;
51724;SDS011;37801;53.224;6.552;2023-07-30T10:24:17;4.28;;;1.40;;
51724;SDS011;37801;53.224;6.552;2023-07-30T10:27:09;5.00;;;1.15;;
51724;SDS011;37801;53.224;6.552;2023-07-30T10:30:13;6.07;;;1.33;;
51724;SDS011;37801;53.224;6.552;2023-07-30T10:33:03;5.20;;;1.35;;
51724;SDS011;37801;53.224;6.552;2023-07-30T10:35:54;5.10;;;1.50;;
51724;SDS011;37801;53.224;6.552;2023-07-30T10:38:39;4.78;;;1.42;;
51724;SDS011;37801;53.224;6.552;2023-07-30T10:41:25;4.28;;;1.38;;
51724;SDS011;37801;53.224;6.552;2023-07-30T10:44:33;6.05;;;1.42;;
51724;SDS011;37801;53.224;6.552;2023-07-30T10:47:17;5.47;;;1.33;;
51724;SDS011;37801;53.224;6.552;2023-07-30T10:50:03;4.07;;;1.17;;
51724;SDS011;37801;53.224;6.552;2023-07-30T10:53:14;4.82;;;1.50;;
51724;SDS011;37801;53.224;6.552;2023-07-30T10:56:03;6.80;;;1.55;;
51724;SDS011;37801;53.224;6.552;2023-07-30T10:58:53;5.45;;;1.90;;
51724;SDS011;37801;53.224;6.552;2023-07-30T11:01:40;7.13;;;1.40;;
51724;SDS011;37801;53.224;6.552;2023-07-30T11:04:38;6.78;;;1.60;;
51724;SDS011;37801;53.224;6.552;2023-07-30T11:07:46;5.70;;;1.60;;
51724;SDS011;37801;53.224;6.552;2023-07-30T11:10:46;8.90;;;1.98;;
51724;SDS011;37801;53.224;6.552;2023-07-30T11:13:39;6.95;;;1.85;;
51724;SDS011;37801;53.224;6.552;2023-07-30T11:16:26;9.93;;;1.90;;
51724;SDS011;37801;53.224;6.552;2023-07-30T11:19:11;10.63;;;1.83;;
51724;SDS011;37801;53.224;6.552;2023-07-30T11:21:57;6.07;;;1.67;;
51724;SDS011;37801;53.224;6.552;2023-07-30T11:24:43;8.48;;;1.80;;
51724;SDS011;37801;53.224;6.552;2023-07-30T11:27:28;6.43;;;1.70;;
51724;SDS011;37801;53.224;6.552;2023-07-30T11:30:14;5.93;;;1.75;;
51724;SDS011;37801;53.224;6.552;2023-07-30T11:33:00;7.75;;;2.38;;
51724;SDS011;37801;53.224;6.552;2023-07-30T11:35:45;8.88;;;2.50;;
51724;SDS011;37801;53.224;6.552;2023-07-30T11:38:31;8.63;;;1.85;;
51724;SDS011;37801;53.224;6.552;2023-07-30T11:41:17;6.65;;;2.22;;
51724;SDS011;37801;53.224;6.552;2023-07-30T11:44:03;8.57;;;2.58;;
51724;SDS011;37801;53.224;6.552;2023-07-30T11:46:53;9.40;;;2.65;;
51724;SDS011;37801;53.224;6.552;2023-07-30T11:49:19;7.75;;;2.30;;
51724;SDS011;37801;53.224;6.552;2023-07-30T11:51:46;6.22;;;2.20;;
51724;SDS011;37801;53.224;6.552;2023-07-30T11:54:22;10.57;;;2.10;;
51724;SDS011;37801;53.224;6.552;2023-07-30T11:56:53;9.65;;;2.17;;
51724;SDS011;37801;53.224;6.552;2023-07-30T11:59:20;8.20;;;2.00;;
51724;SDS011;37801;53.224;6.552;2023-07-30T12:02:09;8.23;;;2.30;;
51724;SDS011;37801;53.224;6.552;2023-07-30T12:05:01;7.95;;;1.70;;
51724;SDS011;37801;53.224;6.552;2023-07-30T12:07:47;8.95;;;2.00;;
51724;SDS011;37801;53.224;6.552;2023-07-30T12:10:42;9.70;;;1.83;;
51724;SDS011;37801;53.224;6.552;2023-07-30T12:13:29;7.18;;;1.92;;
51724;SDS011;37801;53.224;6.552;2023-07-30T12:16:14;7.53;;;1.70;;
51724;SDS011;37801;53.224;6.552;2023-07-30T12:19:00;5.82;;;1.38;;
51724;SDS011;37801;53.224;6.552;2023-07-30T12:21:46;7.45;;;1.60;;
51724;SDS011;37801;53.224;6.552;2023-07-30T12:24:31;6.68;;;1.38;;
51724;SDS011;37801;53.224;6.552;2023-07-30T12:27:18;6.85;;;1.92;;
51724;SDS011;37801;53.224;6.552;2023-07-30T12:30:03;5.40;;;1.83;;
51724;SDS011;37801;53.224;6.552;2023-07-30T12:32:49;7.68;;;1.58;;
51724;SDS011;37801;53.224;6.552;2023-07-30T12:35:35;6.95;;;1.77;;
51724;SDS011;37801;53.224;6.552;2023-07-30T12:38:20;8.05;;;1.60;;
51724;SDS011;37801;53.224;6.552;2023-07-30T12:41:06;5.72;;;1.52;;
51724;SDS011;37801;53.224;6.552;2023-07-30T12:43:52;7.82;;;1.42;;
51724;SDS011;37801;53.224;6.552;2023-07-30T12:46:38;4.10;;;1.25;;
51724;SDS011;37801;53.224;6.552;2023-07-30T12:49:23;6.10;;;1.45;;
51724;SDS011;37801;53.224;6.552;2023-07-30T12:52:09;7.97;;;1.65;;
51724;SDS011;37801;53.224;6.552;2023-07-30T12:54:55;8.32;;;1.60;;
51724;SDS011;37801;53.224;6.552;2023-07-30T12:57:40;5.85;;;1.67;;
51724;SDS011;37801;53.224;6.552;2023-07-30T13:00:26;5.95;;;1.70;;
51724;SDS011;37801;53.224;6.552;2023-07-30T13:03:11;7.72;;;1.85;;
51724;SDS011;37801;53.224;6.552;2023-07-30T13:05:57;5.05;;;1.40;;
51724;SDS011;37801;53.224;6.552;2023-07-30T13:08:48;7.28;;;1.48;;
51724;SDS011;37801;53.224;6.552;2023-07-30T13:11:33;4.38;;;1.30;;
51724;SDS011;37801;53.224;6.552;2023-07-30T13:14:19;3.83;;;1.10;;
51724;SDS011;37801;53.224;6.552;2023-07-30T13:17:08;7.25;;;1.25;;
51724;SDS011;37801;53.224;6.552;2023-07-30T13:19:54;4.25;;;1.17;;
51724;SDS011;37801;53.224;6.552;2023-07-30T13:22:39;5.68;;;1.20;;
51724;SDS011;37801;53.224;6.552;2023-07-30T13:25:25;5.03;;;1.30;;
51724;SDS011;37801;53.224;6.552;2023-07-30T13:28:11;4.50;;;1.38;;
51724;SDS011;37801;53.224;6.552;2023-07-30T13:30:58;4.28;;;1.25;;
51724;SDS011;37801;53.224;6.552;2023-07-30T13:33:44;5.97;;;1.20;;
51724;SDS011;37801;53.224;6.552;2023-07-30T13:36:16;6.13;;;1.60;;
51724;SDS011;37801;53.224;6.552;2023-07-30T13:38:48;4.63;;;1.42;;
51724;SDS011;37801;53.224;6.552;2023-07-30T13:41:14;7.85;;;1.88;;
51724;SDS011;37801;53.224;6.552;2023-07-30T13:44:00;4.63;;;1.27;;
51724;SDS011;37801;53.224;6.552;2023-07-30T13:46:46;4.95;;;1.10;;
51724;SDS011;37801;53.224;6.552;2023-07-30T13:49:31;6.88;;;1.52;;
51724;SDS011;37801;53.224;6.552;2023-07-30T13:52:17;5.75;;;1.50;;
51724;SDS011;37801;53.224;6.552;2023-07-30T13:55:03;6.95;;;1.27;;
51724;SDS011;37801;53.224;6.552;2023-07-30T13:57:49;5.43;;;1.23;;
51724;SDS011;37801;53.224;6.552;2023-07-30T14:00:35;5.03;;;1.15;;
51724;SDS011;37801;53.224;6.552;2023-07-30T14:03:20;5.32;;;1.17;;
51724;SDS011;37801;53.224;6.552;2023-07-30T14:06:06;6.20;;;1.13;;
51724;SDS011;37801;53.224;6.552;2023-07-30T14:08:55;4.20;;;1.20;;
51724;SDS011;37801;53.224;6.552;2023-07-30T14:11:41;13.65;;;1.10;;
51724;SDS011;37801;53.224;6.552;2023-07-30T14:14:27;4.65;;;1.02;;
51724;SDS011;37801;53.224;6.552;2023-07-30T14:17:12;3.97;;;1.10;;
51724;SDS011;37801;53.224;6.552;2023-07-30T14:19:58;3.90;;;1.15;;
51724;SDS011;37801;53.224;6.552;2023-07-30T14:22:53;7.68;;;1.73;;
51724;SDS011;37801;53.224;6.552;2023-07-30T14:25:39;5.03;;;1.33;;
51724;SDS011;37801;53.224;6.552;2023-07-30T14:28:25;3.50;;;1.00;;
51724;SDS011;37801;53.224;6.552;2023-07-30T14:31:10;6.28;;;1.30;;
51724;SDS011;37801;53.224;6.552;2023-07-30T14:33:56;6.15;;;1.17;;
51724;SDS011;37801;53.224;6.552;2023-07-30T14:36:42;8.98;;;1.58;;
51724;SDS011;37801;53.224;6.552;2023-07-30T14:39:28;6.65;;;1.30;;
51724;SDS011;37801;53.224;6.552;2023-07-30T14:42:13;5.80;;;1.65;;
51724;SDS011;37801;53.224;6.552;2023-07-30T14:44:59;4.82;;;1.30;;
51724;SDS011;37801;53.224;6.552;2023-07-30T14:47:44;6.82;;;1.48;;
51724;SDS011;37801;53.224;6.552;2023-07-30T14:50:30;7.47;;;1.42;;
51724;SDS011;37801;53.224;6.552;2023-07-30T14:53:16;6.07;;;1.42;;
51724;SDS011;37801;53.224;6.552;2023-07-30T14:56:02;3.53;;;1.00;;
51724;SDS011;37801;53.224;6.552;2023-07-30T14:58:48;7.60;;;1.40;;
51724;SDS011;37801;53.224;6.552;2023-07-30T15:01:33;5.53;;;1.33;;
51724;SDS011;37801;53.224;6.552;2023-07-30T15:04:19;5.80;;;1.33;;
51724;SDS011;37801;53.224;6.552;2023-07-30T15:07:04;4.05;;;1.10;;
51724;SDS011;37801;53.224;6.552;2023-07-30T15:09:53;5.18;;;1.23;;
51724;SDS011;37801;53.224;6.552;2023-07-30T15:12:39;5.25;;;1.25;;
51724;SDS011;37801;53.224;6.552;2023-07-30T15:15:25;4.93;;;1.27;;
51724;SDS011;37801;53.224;6.552;2023-07-30T15:18:10;4.38;;;1.30;;
51724;SDS011;37801;53.224;6.552;2023-07-30T15:20:56;5.93;;;1.30;;
51724;SDS011;37801;53.224;6.552;2023-07-30T15:23:42;4.57;;;1.02;;
51724;SDS011;37801;53.224;6.552;2023-07-30T15:26:28;3.72;;;1.30;;
51724;SDS011;37801;53.224;6.552;2023-07-30T15:29:13;2.95;;;1.10;;
51724;SDS011;37801;53.224;6.552;2023-07-30T15:31:59;5.43;;;1.25;;
51724;SDS011;37801;53.224;6.552;2023-07-30T15:34:47;3.42;;;1.10;;
51724;SDS011;37801;53.224;6.552;2023-07-30T15:37:32;7.28;;;1.60;;
51724;SDS011;37801;53.224;6.552;2023-07-30T15:40:18;4.70;;;1.00;;
51724;SDS011;37801;53.224;6.552;2023-07-30T15:43:03;4.53;;;1.20;;
51724;SDS011;37801;53.224;6.552;2023-07-30T15:45:50;2.60;;;0.93;;
51724;SDS011;37801;53.224;6.552;2023-07-30T15:48:37;5.70;;;1.45;;
51724;SDS011;37801;53.224;6.552;2023-07-30T15:51:22;6.45;;;1.40;;
51724;SDS011;37801;53.224;6.552;2023-07-30T15:54:08;4.75;;;1.15;;
51724;SDS011;37801;53.224;6.552;2023-07-30T15:56:54;3.50;;;1.08;;
51724;SDS011;37801;53.224;6.552;2023-07-30T15:59:39;4.00;;;1.17;;
51724;SDS011;37801;53.224;6.552;2023-07-30T16:02:32;4.78;;;1.10;;
51724;SDS011;37801;53.224;6.552;2023-07-30T16:05:13;4.35;;;1.20;;
51724;SDS011;37801;53.224;6.552;2023-07-30T16:07:40;4.80;;;1.35;;
51724;SDS011;37801;53.224;6.552;2023-07-30T16:10:26;4.15;;;0.93;;
51724;SDS011;37801;53.224;6.552;2023-07-30T16:13:11;4.07;;;0.80;;
51724;SDS011;37801;53.224;6.552;2023-07-30T16:16:06;3.45;;;1.13;;
51724;SDS011;37801;53.224;6.552;2023-07-30T16:18:36;3.38;;;1.00;;
51724;SDS011;37801;53.224;6.552;2023-07-30T16:21:03;3.85;;;1.00;;
51724;SDS011;37801;53.224;6.552;2023-07-30T16:23:49;5.65;;;1.45;;
51724;SDS011;37801;53.224;6.552;2023-07-30T16:26:35;4.00;;;1.10;;